<?xml version="1.0" encoding="UTF-8" standalone="no" ?>
<gpx xmlns="http://www.topografix.com/GPX/1/1" xmlns:xsi="http://www.w3.org/2001/XMLSchema-instance" xsi:schemaLocation="http://www.topografix.com/GPX/1/1 http://www.topografix.com/GPX/1/1/gpx.xsd" version="1.1" creator="VisuGPX - https://www.visugpx.com">
  <metadata>
    <name>Redon_Chateaulin</name>
    <desc><![CDATA[Randonnée cyclotouriste de Redon à Châteaulin par le chemin de halage du canal de Nantes à Brest avec quelques échappées vers Rostrenen, Carhaix et Pleyben.]]></desc>
  </metadata>
  <trk>
    <name><![CDATA[ACTIVE LOG 006]]></name>
    <trkseg>
      <trkpt lat="48.06666" lon="-2.96565">
        <ele>48.683959960938</ele>
        <time>2012-04-16T14:10:05Z</time>
      </trkpt>
      <trkpt lat="48.06669" lon="-2.96559">
        <ele>62.142333984375</ele>
        <time>2012-04-16T14:10:41Z</time>
      </trkpt>
      <trkpt lat="48.06675" lon="-2.96564">
        <ele>63.584350585938</ele>
        <time>2012-04-16T14:10:59Z</time>
      </trkpt>
      <trkpt lat="48.06676" lon="-2.96565">
        <ele>64.065063476562</ele>
        <time>2012-04-16T14:11:12Z</time>
      </trkpt>
      <trkpt lat="48.06678" lon="-2.96566">
        <ele>64.065063476562</ele>
        <time>2012-04-16T14:11:14Z</time>
      </trkpt>
      <trkpt lat="48.06681" lon="-2.96588">
        <ele>63.584350585938</ele>
        <time>2012-04-16T14:11:20Z</time>
      </trkpt>
      <trkpt lat="48.06693" lon="-2.9666">
        <ele>58.297119140625</ele>
        <time>2012-04-16T14:11:36Z</time>
      </trkpt>
      <trkpt lat="48.06703" lon="-2.96708">
        <ele>54.932373046875</ele>
        <time>2012-04-16T14:11:50Z</time>
      </trkpt>
      <trkpt lat="48.06703" lon="-2.96708">
        <ele>54.451782226562</ele>
        <time>2012-04-16T14:11:55Z</time>
      </trkpt>
      <trkpt lat="48.06704" lon="-2.96766">
        <ele>52.529174804688</ele>
        <time>2012-04-16T14:12:08Z</time>
      </trkpt>
      <trkpt lat="48.06715" lon="-2.96817">
        <ele>50.606567382812</ele>
        <time>2012-04-16T14:12:21Z</time>
      </trkpt>
      <trkpt lat="48.06716" lon="-2.96824">
        <ele>50.1259765625</ele>
        <time>2012-04-16T14:12:25Z</time>
      </trkpt>
      <trkpt lat="48.06708" lon="-2.96833">
        <ele>48.683959960938</ele>
        <time>2012-04-16T14:12:31Z</time>
      </trkpt>
      <trkpt lat="48.0664" lon="-2.96829">
        <ele>48.203369140625</ele>
        <time>2012-04-16T14:12:51Z</time>
      </trkpt>
      <trkpt lat="48.06569" lon="-2.96851">
        <ele>50.1259765625</ele>
        <time>2012-04-16T14:13:13Z</time>
      </trkpt>
      <trkpt lat="48.06567" lon="-2.96852">
        <ele>49.645263671875</ele>
        <time>2012-04-16T14:13:24Z</time>
      </trkpt>
      <trkpt lat="48.06567" lon="-2.96852">
        <ele>49.645263671875</ele>
        <time>2012-04-16T14:16:01Z</time>
      </trkpt>
      <trkpt lat="48.06561" lon="-2.96854">
        <ele>49.645263671875</ele>
        <time>2012-04-16T14:16:08Z</time>
      </trkpt>
      <trkpt lat="48.06549" lon="-2.96845">
        <ele>49.16455078125</ele>
        <time>2012-04-16T14:16:14Z</time>
      </trkpt>
      <trkpt lat="48.06634" lon="-2.96828">
        <ele>47.722534179688</ele>
        <time>2012-04-16T14:16:33Z</time>
      </trkpt>
      <trkpt lat="48.06696" lon="-2.96836">
        <ele>47.722534179688</ele>
        <time>2012-04-16T14:16:46Z</time>
      </trkpt>
      <trkpt lat="48.06712" lon="-2.96833">
        <ele>48.203369140625</ele>
        <time>2012-04-16T14:16:51Z</time>
      </trkpt>
      <trkpt lat="48.06712" lon="-2.96833">
        <ele>48.683959960938</ele>
        <time>2012-04-16T14:16:55Z</time>
      </trkpt>
      <trkpt lat="48.06731" lon="-2.96846">
        <ele>48.203369140625</ele>
        <time>2012-04-16T14:16:57Z</time>
      </trkpt>
      <trkpt lat="48.06754" lon="-2.96848">
        <ele>48.203369140625</ele>
        <time>2012-04-16T14:17:02Z</time>
      </trkpt>
      <trkpt lat="48.06777" lon="-2.96842">
        <ele>48.683959960938</ele>
        <time>2012-04-16T14:17:08Z</time>
      </trkpt>
      <trkpt lat="48.06849" lon="-2.96805">
        <ele>47.722534179688</ele>
        <time>2012-04-16T14:17:28Z</time>
      </trkpt>
      <trkpt lat="48.06858" lon="-2.9679">
        <ele>46.76123046875</ele>
        <time>2012-04-16T14:17:41Z</time>
      </trkpt>
      <trkpt lat="48.06896" lon="-2.96729">
        <ele>47.241821289062</ele>
        <time>2012-04-16T14:18:00Z</time>
      </trkpt>
      <trkpt lat="48.06919" lon="-2.9669">
        <ele>46.280639648438</ele>
        <time>2012-04-16T14:18:08Z</time>
      </trkpt>
      <trkpt lat="48.06929" lon="-2.96676">
        <ele>45.799926757812</ele>
        <time>2012-04-16T14:18:11Z</time>
      </trkpt>
      <trkpt lat="48.06999" lon="-2.96626">
        <ele>46.76123046875</ele>
        <time>2012-04-16T14:18:32Z</time>
      </trkpt>
      <trkpt lat="48.07016" lon="-2.96614">
        <ele>47.241821289062</ele>
        <time>2012-04-16T14:18:40Z</time>
      </trkpt>
      <trkpt lat="48.0702" lon="-2.96629">
        <ele>48.203369140625</ele>
        <time>2012-04-16T14:18:45Z</time>
      </trkpt>
      <trkpt lat="48.0703" lon="-2.9665">
        <ele>48.683959960938</ele>
        <time>2012-04-16T14:18:51Z</time>
      </trkpt>
      <trkpt lat="48.0703" lon="-2.9665">
        <ele>48.203369140625</ele>
        <time>2012-04-16T14:19:06Z</time>
      </trkpt>
      <trkpt lat="48.0703" lon="-2.9665">
        <ele>48.203369140625</ele>
        <time>2012-04-16T14:19:19Z</time>
      </trkpt>
      <trkpt lat="48.0703" lon="-2.9665">
        <ele>48.683959960938</ele>
        <time>2012-04-16T14:19:41Z</time>
      </trkpt>
      <trkpt lat="48.07047" lon="-2.96655">
        <ele>48.203369140625</ele>
        <time>2012-04-16T14:19:47Z</time>
      </trkpt>
      <trkpt lat="48.07051" lon="-2.96657">
        <ele>48.683959960938</ele>
        <time>2012-04-16T14:19:51Z</time>
      </trkpt>
      <trkpt lat="48.0707" lon="-2.96573">
        <ele>47.722534179688</ele>
        <time>2012-04-16T14:20:03Z</time>
      </trkpt>
      <trkpt lat="48.0712" lon="-2.96535">
        <ele>46.280639648438</ele>
        <time>2012-04-16T14:20:19Z</time>
      </trkpt>
      <trkpt lat="48.0718" lon="-2.96609">
        <ele>45.799926757812</ele>
        <time>2012-04-16T14:20:32Z</time>
      </trkpt>
      <trkpt lat="48.07212" lon="-2.96662">
        <ele>50.1259765625</ele>
        <time>2012-04-16T14:20:45Z</time>
      </trkpt>
      <trkpt lat="48.0722" lon="-2.96682">
        <ele>52.529174804688</ele>
        <time>2012-04-16T14:20:50Z</time>
      </trkpt>
      <trkpt lat="48.0723" lon="-2.96683">
        <ele>53.009765625</ele>
        <time>2012-04-16T14:20:55Z</time>
      </trkpt>
      <trkpt lat="48.0724" lon="-2.96679">
        <ele>51.56787109375</ele>
        <time>2012-04-16T14:21:01Z</time>
      </trkpt>
      <trkpt lat="48.07256" lon="-2.96713">
        <ele>48.683959960938</ele>
        <time>2012-04-16T14:21:20Z</time>
      </trkpt>
      <trkpt lat="48.07264" lon="-2.96773">
        <ele>47.722534179688</ele>
        <time>2012-04-16T14:21:30Z</time>
      </trkpt>
      <trkpt lat="48.07316" lon="-2.96818">
        <ele>47.722534179688</ele>
        <time>2012-04-16T14:21:42Z</time>
      </trkpt>
      <trkpt lat="48.07404" lon="-2.9688">
        <ele>47.722534179688</ele>
        <time>2012-04-16T14:22:04Z</time>
      </trkpt>
      <trkpt lat="48.07466" lon="-2.96925">
        <ele>47.241821289062</ele>
        <time>2012-04-16T14:22:22Z</time>
      </trkpt>
      <trkpt lat="48.07521" lon="-2.96977">
        <ele>48.683959960938</ele>
        <time>2012-04-16T14:22:38Z</time>
      </trkpt>
      <trkpt lat="48.07537" lon="-2.97008">
        <ele>48.203369140625</ele>
        <time>2012-04-16T14:22:45Z</time>
      </trkpt>
      <trkpt lat="48.07544" lon="-2.97026">
        <ele>49.16455078125</ele>
        <time>2012-04-16T14:22:49Z</time>
      </trkpt>
      <trkpt lat="48.07577" lon="-2.9711">
        <ele>48.683959960938</ele>
        <time>2012-04-16T14:23:06Z</time>
      </trkpt>
      <trkpt lat="48.07606" lon="-2.97185">
        <ele>47.722534179688</ele>
        <time>2012-04-16T14:23:20Z</time>
      </trkpt>
      <trkpt lat="48.07637" lon="-2.97309">
        <ele>44.838623046875</ele>
        <time>2012-04-16T14:23:40Z</time>
      </trkpt>
      <trkpt lat="48.07639" lon="-2.97426">
        <ele>44.838623046875</ele>
        <time>2012-04-16T14:23:59Z</time>
      </trkpt>
      <trkpt lat="48.07633" lon="-2.9748">
        <ele>43.877319335938</ele>
        <time>2012-04-16T14:24:08Z</time>
      </trkpt>
      <trkpt lat="48.07631" lon="-2.97499">
        <ele>44.838623046875</ele>
        <time>2012-04-16T14:24:11Z</time>
      </trkpt>
      <trkpt lat="48.07628" lon="-2.97523">
        <ele>47.241821289062</ele>
        <time>2012-04-16T14:24:15Z</time>
      </trkpt>
      <trkpt lat="48.07573" lon="-2.97635">
        <ele>46.76123046875</ele>
        <time>2012-04-16T14:24:36Z</time>
      </trkpt>
      <trkpt lat="48.07561" lon="-2.97728">
        <ele>48.203369140625</ele>
        <time>2012-04-16T14:24:51Z</time>
      </trkpt>
      <trkpt lat="48.07553" lon="-2.97801">
        <ele>46.76123046875</ele>
        <time>2012-04-16T14:25:04Z</time>
      </trkpt>
      <trkpt lat="48.07545" lon="-2.97881">
        <ele>45.799926757812</ele>
        <time>2012-04-16T14:25:18Z</time>
      </trkpt>
      <trkpt lat="48.07535" lon="-2.97984">
        <ele>47.241821289062</ele>
        <time>2012-04-16T14:25:35Z</time>
      </trkpt>
      <trkpt lat="48.07524" lon="-2.98086">
        <ele>47.722534179688</ele>
        <time>2012-04-16T14:25:52Z</time>
      </trkpt>
      <trkpt lat="48.07526" lon="-2.9818">
        <ele>44.358032226562</ele>
        <time>2012-04-16T14:26:07Z</time>
      </trkpt>
      <trkpt lat="48.07533" lon="-2.98211">
        <ele>45.319213867188</ele>
        <time>2012-04-16T14:26:12Z</time>
      </trkpt>
      <trkpt lat="48.07548" lon="-2.98281">
        <ele>47.722534179688</ele>
        <time>2012-04-16T14:26:23Z</time>
      </trkpt>
      <trkpt lat="48.0756" lon="-2.98326">
        <ele>48.683959960938</ele>
        <time>2012-04-16T14:26:30Z</time>
      </trkpt>
      <trkpt lat="48.07582" lon="-2.98362">
        <ele>48.683959960938</ele>
        <time>2012-04-16T14:26:38Z</time>
      </trkpt>
      <trkpt lat="48.07642" lon="-2.98458">
        <ele>50.1259765625</ele>
        <time>2012-04-16T14:26:57Z</time>
      </trkpt>
      <trkpt lat="48.07664" lon="-2.98477">
        <ele>50.1259765625</ele>
        <time>2012-04-16T14:27:04Z</time>
      </trkpt>
      <trkpt lat="48.07729" lon="-2.98515">
        <ele>49.16455078125</ele>
        <time>2012-04-16T14:27:21Z</time>
      </trkpt>
      <trkpt lat="48.07775" lon="-2.98506">
        <ele>47.722534179688</ele>
        <time>2012-04-16T14:27:32Z</time>
      </trkpt>
      <trkpt lat="48.07865" lon="-2.98454">
        <ele>48.683959960938</ele>
        <time>2012-04-16T14:27:56Z</time>
      </trkpt>
      <trkpt lat="48.07932" lon="-2.98428">
        <ele>50.1259765625</ele>
        <time>2012-04-16T14:28:13Z</time>
      </trkpt>
      <trkpt lat="48.08033" lon="-2.98392">
        <ele>52.529174804688</ele>
        <time>2012-04-16T14:28:38Z</time>
      </trkpt>
      <trkpt lat="48.08103" lon="-2.98369">
        <ele>52.529174804688</ele>
        <time>2012-04-16T14:28:55Z</time>
      </trkpt>
      <trkpt lat="48.08193" lon="-2.98362">
        <ele>51.087158203125</ele>
        <time>2012-04-16T14:29:17Z</time>
      </trkpt>
      <trkpt lat="48.08289" lon="-2.98363">
        <ele>52.048583984375</ele>
        <time>2012-04-16T14:29:41Z</time>
      </trkpt>
      <trkpt lat="48.08373" lon="-2.98366">
        <ele>52.048583984375</ele>
        <time>2012-04-16T14:30:01Z</time>
      </trkpt>
      <trkpt lat="48.0843" lon="-2.98369">
        <ele>51.56787109375</ele>
        <time>2012-04-16T14:30:15Z</time>
      </trkpt>
      <trkpt lat="48.08496" lon="-2.98407">
        <ele>52.529174804688</ele>
        <time>2012-04-16T14:30:31Z</time>
      </trkpt>
      <trkpt lat="48.08609" lon="-2.98493">
        <ele>52.529174804688</ele>
        <time>2012-04-16T14:31:00Z</time>
      </trkpt>
      <trkpt lat="48.08718" lon="-2.98576">
        <ele>53.009765625</ele>
        <time>2012-04-16T14:31:28Z</time>
      </trkpt>
      <trkpt lat="48.08802" lon="-2.98613">
        <ele>52.529174804688</ele>
        <time>2012-04-16T14:31:48Z</time>
      </trkpt>
      <trkpt lat="48.08886" lon="-2.98686">
        <ele>52.529174804688</ele>
        <time>2012-04-16T14:32:11Z</time>
      </trkpt>
      <trkpt lat="48.08982" lon="-2.98772">
        <ele>52.529174804688</ele>
        <time>2012-04-16T14:32:37Z</time>
      </trkpt>
      <trkpt lat="48.0907" lon="-2.98867">
        <ele>53.009765625</ele>
        <time>2012-04-16T14:33:02Z</time>
      </trkpt>
      <trkpt lat="48.09143" lon="-2.98955">
        <ele>53.97119140625</ele>
        <time>2012-04-16T14:33:26Z</time>
      </trkpt>
      <trkpt lat="48.09214" lon="-2.99005">
        <ele>53.97119140625</ele>
        <time>2012-04-16T14:33:48Z</time>
      </trkpt>
      <trkpt lat="48.09261" lon="-2.9901">
        <ele>54.451782226562</ele>
        <time>2012-04-16T14:33:59Z</time>
      </trkpt>
      <trkpt lat="48.09369" lon="-2.99007">
        <ele>53.009765625</ele>
        <time>2012-04-16T14:34:25Z</time>
      </trkpt>
      <trkpt lat="48.09458" lon="-2.99026">
        <ele>52.529174804688</ele>
        <time>2012-04-16T14:34:46Z</time>
      </trkpt>
      <trkpt lat="48.09557" lon="-2.99064">
        <ele>52.529174804688</ele>
        <time>2012-04-16T14:35:10Z</time>
      </trkpt>
      <trkpt lat="48.09654" lon="-2.99135">
        <ele>53.009765625</ele>
        <time>2012-04-16T14:35:36Z</time>
      </trkpt>
      <trkpt lat="48.09727" lon="-2.99223">
        <ele>53.490478515625</ele>
        <time>2012-04-16T14:35:58Z</time>
      </trkpt>
      <trkpt lat="48.09821" lon="-2.9936">
        <ele>53.490478515625</ele>
        <time>2012-04-16T14:36:29Z</time>
      </trkpt>
      <trkpt lat="48.0991" lon="-2.99493">
        <ele>51.56787109375</ele>
        <time>2012-04-16T14:36:59Z</time>
      </trkpt>
      <trkpt lat="48.09965" lon="-2.99531">
        <ele>51.56787109375</ele>
        <time>2012-04-16T14:37:13Z</time>
      </trkpt>
      <trkpt lat="48.1007" lon="-2.99601">
        <ele>52.048583984375</ele>
        <time>2012-04-16T14:37:40Z</time>
      </trkpt>
      <trkpt lat="48.10184" lon="-2.99699">
        <ele>52.048583984375</ele>
        <time>2012-04-16T14:38:10Z</time>
      </trkpt>
      <trkpt lat="48.1029" lon="-2.9979">
        <ele>52.048583984375</ele>
        <time>2012-04-16T14:38:37Z</time>
      </trkpt>
      <trkpt lat="48.10383" lon="-2.99883">
        <ele>53.009765625</ele>
        <time>2012-04-16T14:39:02Z</time>
      </trkpt>
      <trkpt lat="48.10448" lon="-2.99968">
        <ele>54.451782226562</ele>
        <time>2012-04-16T14:39:21Z</time>
      </trkpt>
      <trkpt lat="48.1049" lon="-3.00026">
        <ele>55.4130859375</ele>
        <time>2012-04-16T14:39:34Z</time>
      </trkpt>
      <trkpt lat="48.10496" lon="-3.00034">
        <ele>55.893798828125</ele>
        <time>2012-04-16T14:39:36Z</time>
      </trkpt>
      <trkpt lat="48.10572" lon="-3.00106">
        <ele>54.451782226562</ele>
        <time>2012-04-16T14:39:55Z</time>
      </trkpt>
      <trkpt lat="48.10643" lon="-3.00202">
        <ele>53.490478515625</ele>
        <time>2012-04-16T14:40:17Z</time>
      </trkpt>
      <trkpt lat="48.10698" lon="-3.00275">
        <ele>53.009765625</ele>
        <time>2012-04-16T14:40:35Z</time>
      </trkpt>
      <trkpt lat="48.10775" lon="-3.00352">
        <ele>55.4130859375</ele>
        <time>2012-04-16T14:40:57Z</time>
      </trkpt>
      <trkpt lat="48.10852" lon="-3.00399">
        <ele>53.97119140625</ele>
        <time>2012-04-16T14:41:16Z</time>
      </trkpt>
      <trkpt lat="48.10886" lon="-3.00417">
        <ele>54.451782226562</ele>
        <time>2012-04-16T14:41:24Z</time>
      </trkpt>
      <trkpt lat="48.10967" lon="-3.00422">
        <ele>53.009765625</ele>
        <time>2012-04-16T14:41:42Z</time>
      </trkpt>
      <trkpt lat="48.10976" lon="-3.00419">
        <ele>52.529174804688</ele>
        <time>2012-04-16T14:41:44Z</time>
      </trkpt>
      <trkpt lat="48.11029" lon="-3.00402">
        <ele>50.1259765625</ele>
        <time>2012-04-16T14:41:57Z</time>
      </trkpt>
      <trkpt lat="48.11067" lon="-3.00388">
        <ele>48.203369140625</ele>
        <time>2012-04-16T14:42:06Z</time>
      </trkpt>
      <trkpt lat="48.11111" lon="-3.0036">
        <ele>46.280639648438</ele>
        <time>2012-04-16T14:42:17Z</time>
      </trkpt>
      <trkpt lat="48.11172" lon="-3.0031">
        <ele>47.241821289062</ele>
        <time>2012-04-16T14:42:34Z</time>
      </trkpt>
      <trkpt lat="48.11247" lon="-3.00235">
        <ele>47.722534179688</ele>
        <time>2012-04-16T14:42:56Z</time>
      </trkpt>
      <trkpt lat="48.11286" lon="-3.00169">
        <ele>49.645263671875</ele>
        <time>2012-04-16T14:43:10Z</time>
      </trkpt>
      <trkpt lat="48.11295" lon="-3.00112">
        <ele>52.529174804688</ele>
        <time>2012-04-16T14:43:23Z</time>
      </trkpt>
      <trkpt lat="48.11311" lon="-3.00009">
        <ele>53.490478515625</ele>
        <time>2012-04-16T14:43:43Z</time>
      </trkpt>
      <trkpt lat="48.11327" lon="-2.99826">
        <ele>53.97119140625</ele>
        <time>2012-04-16T14:44:14Z</time>
      </trkpt>
      <trkpt lat="48.11344" lon="-2.99684">
        <ele>53.97119140625</ele>
        <time>2012-04-16T14:44:36Z</time>
      </trkpt>
      <trkpt lat="48.11356" lon="-2.99615">
        <ele>53.490478515625</ele>
        <time>2012-04-16T14:44:47Z</time>
      </trkpt>
      <trkpt lat="48.11389" lon="-2.99554">
        <ele>54.451782226562</ele>
        <time>2012-04-16T14:45:03Z</time>
      </trkpt>
      <trkpt lat="48.11389" lon="-2.99553">
        <ele>53.97119140625</ele>
        <time>2012-04-16T14:45:18Z</time>
      </trkpt>
      <trkpt lat="48.11515" lon="-2.99441">
        <ele>53.97119140625</ele>
        <time>2012-04-16T14:45:42Z</time>
      </trkpt>
      <trkpt lat="48.11535" lon="-2.99422">
        <ele>53.490478515625</ele>
        <time>2012-04-16T14:45:48Z</time>
      </trkpt>
      <trkpt lat="48.11608" lon="-2.99351">
        <ele>53.490478515625</ele>
        <time>2012-04-16T14:46:09Z</time>
      </trkpt>
      <trkpt lat="48.11622" lon="-2.99339">
        <ele>53.97119140625</ele>
        <time>2012-04-16T14:46:18Z</time>
      </trkpt>
      <trkpt lat="48.11622" lon="-2.99339">
        <ele>54.451782226562</ele>
        <time>2012-04-16T14:47:40Z</time>
      </trkpt>
      <trkpt lat="48.1164" lon="-2.9933">
        <ele>57.335815429688</ele>
        <time>2012-04-16T14:49:42Z</time>
      </trkpt>
      <trkpt lat="48.11697" lon="-2.99289">
        <ele>59.258422851562</ele>
        <time>2012-04-16T14:49:58Z</time>
      </trkpt>
      <trkpt lat="48.11766" lon="-2.99296">
        <ele>58.297119140625</ele>
        <time>2012-04-16T14:50:14Z</time>
      </trkpt>
      <trkpt lat="48.11835" lon="-2.99308">
        <ele>55.893798828125</ele>
        <time>2012-04-16T14:50:31Z</time>
      </trkpt>
      <trkpt lat="48.11885" lon="-2.99325">
        <ele>55.4130859375</ele>
        <time>2012-04-16T14:50:43Z</time>
      </trkpt>
      <trkpt lat="48.11939" lon="-2.99359">
        <ele>56.37451171875</ele>
        <time>2012-04-16T14:50:57Z</time>
      </trkpt>
      <trkpt lat="48.11974" lon="-2.99384">
        <ele>55.893798828125</ele>
        <time>2012-04-16T14:51:06Z</time>
      </trkpt>
      <trkpt lat="48.12027" lon="-2.99433">
        <ele>55.893798828125</ele>
        <time>2012-04-16T14:51:20Z</time>
      </trkpt>
      <trkpt lat="48.12101" lon="-2.99462">
        <ele>56.37451171875</ele>
        <time>2012-04-16T14:51:38Z</time>
      </trkpt>
      <trkpt lat="48.12184" lon="-2.99476">
        <ele>56.855102539062</ele>
        <time>2012-04-16T14:52:01Z</time>
      </trkpt>
      <trkpt lat="48.12216" lon="-2.99484">
        <ele>56.855102539062</ele>
        <time>2012-04-16T14:52:13Z</time>
      </trkpt>
      <trkpt lat="48.1222" lon="-2.99484">
        <ele>56.855102539062</ele>
        <time>2012-04-16T14:52:15Z</time>
      </trkpt>
      <trkpt lat="48.12239" lon="-2.99473">
        <ele>56.37451171875</ele>
        <time>2012-04-16T14:52:23Z</time>
      </trkpt>
      <trkpt lat="48.12285" lon="-2.99543">
        <ele>55.893798828125</ele>
        <time>2012-04-16T14:52:35Z</time>
      </trkpt>
      <trkpt lat="48.12343" lon="-2.99618">
        <ele>56.37451171875</ele>
        <time>2012-04-16T14:52:52Z</time>
      </trkpt>
      <trkpt lat="48.12367" lon="-2.99751">
        <ele>55.4130859375</ele>
        <time>2012-04-16T14:53:11Z</time>
      </trkpt>
      <trkpt lat="48.12374" lon="-2.99899">
        <ele>54.932373046875</ele>
        <time>2012-04-16T14:53:32Z</time>
      </trkpt>
      <trkpt lat="48.1237" lon="-2.99923">
        <ele>55.4130859375</ele>
        <time>2012-04-16T14:53:36Z</time>
      </trkpt>
      <trkpt lat="48.12367" lon="-2.9994">
        <ele>55.4130859375</ele>
        <time>2012-04-16T14:53:39Z</time>
      </trkpt>
      <trkpt lat="48.1235" lon="-3.00014">
        <ele>53.97119140625</ele>
        <time>2012-04-16T14:53:51Z</time>
      </trkpt>
      <trkpt lat="48.12336" lon="-3.00047">
        <ele>53.97119140625</ele>
        <time>2012-04-16T14:53:57Z</time>
      </trkpt>
      <trkpt lat="48.12321" lon="-3.00087">
        <ele>54.451782226562</ele>
        <time>2012-04-16T14:54:04Z</time>
      </trkpt>
      <trkpt lat="48.12302" lon="-3.00131">
        <ele>57.335815429688</ele>
        <time>2012-04-16T14:54:12Z</time>
      </trkpt>
      <trkpt lat="48.12264" lon="-3.00201">
        <ele>58.777709960938</ele>
        <time>2012-04-16T14:54:25Z</time>
      </trkpt>
      <trkpt lat="48.12258" lon="-3.00212">
        <ele>60.2197265625</ele>
        <time>2012-04-16T14:54:27Z</time>
      </trkpt>
      <trkpt lat="48.12209" lon="-3.00291">
        <ele>62.622924804688</ele>
        <time>2012-04-16T14:54:43Z</time>
      </trkpt>
      <trkpt lat="48.12176" lon="-3.00346">
        <ele>63.103637695312</ele>
        <time>2012-04-16T14:54:54Z</time>
      </trkpt>
      <trkpt lat="48.12127" lon="-3.00427">
        <ele>62.142333984375</ele>
        <time>2012-04-16T14:55:12Z</time>
      </trkpt>
      <trkpt lat="48.12121" lon="-3.00565">
        <ele>58.777709960938</ele>
        <time>2012-04-16T14:55:31Z</time>
      </trkpt>
      <trkpt lat="48.12123" lon="-3.00579">
        <ele>58.777709960938</ele>
        <time>2012-04-16T14:55:33Z</time>
      </trkpt>
      <trkpt lat="48.12127" lon="-3.00619">
        <ele>58.297119140625</ele>
        <time>2012-04-16T14:55:39Z</time>
      </trkpt>
      <trkpt lat="48.12142" lon="-3.00704">
        <ele>56.855102539062</ele>
        <time>2012-04-16T14:55:52Z</time>
      </trkpt>
      <trkpt lat="48.12149" lon="-3.00743">
        <ele>54.932373046875</ele>
        <time>2012-04-16T14:55:58Z</time>
      </trkpt>
      <trkpt lat="48.12161" lon="-3.00804">
        <ele>58.297119140625</ele>
        <time>2012-04-16T14:56:07Z</time>
      </trkpt>
      <trkpt lat="48.12162" lon="-3.0084">
        <ele>57.335815429688</ele>
        <time>2012-04-16T14:56:13Z</time>
      </trkpt>
      <trkpt lat="48.12162" lon="-3.00868">
        <ele>56.855102539062</ele>
        <time>2012-04-16T14:56:17Z</time>
      </trkpt>
      <trkpt lat="48.1216" lon="-3.00916">
        <ele>58.297119140625</ele>
        <time>2012-04-16T14:56:24Z</time>
      </trkpt>
      <trkpt lat="48.12157" lon="-3.00953">
        <ele>56.855102539062</ele>
        <time>2012-04-16T14:56:30Z</time>
      </trkpt>
      <trkpt lat="48.12153" lon="-3.01001">
        <ele>57.335815429688</ele>
        <time>2012-04-16T14:56:39Z</time>
      </trkpt>
      <trkpt lat="48.12153" lon="-3.01004">
        <ele>56.855102539062</ele>
        <time>2012-04-16T14:56:51Z</time>
      </trkpt>
      <trkpt lat="48.12153" lon="-3.01004">
        <ele>56.855102539062</ele>
        <time>2012-04-16T14:58:09Z</time>
      </trkpt>
      <trkpt lat="48.12153" lon="-3.01004">
        <ele>56.855102539062</ele>
        <time>2012-04-16T14:59:10Z</time>
      </trkpt>
      <trkpt lat="48.12153" lon="-3.01004">
        <ele>57.816528320312</ele>
        <time>2012-04-16T15:14:29Z</time>
      </trkpt>
      <trkpt lat="48.12148" lon="-3.0106">
        <ele>59.739135742188</ele>
        <time>2012-04-16T15:14:44Z</time>
      </trkpt>
      <trkpt lat="48.12146" lon="-3.01114">
        <ele>60.700317382812</ele>
        <time>2012-04-16T15:14:56Z</time>
      </trkpt>
      <trkpt lat="48.12159" lon="-3.012">
        <ele>59.258422851562</ele>
        <time>2012-04-16T15:15:12Z</time>
      </trkpt>
      <trkpt lat="48.12196" lon="-3.01294">
        <ele>59.258422851562</ele>
        <time>2012-04-16T15:15:31Z</time>
      </trkpt>
      <trkpt lat="48.12237" lon="-3.01349">
        <ele>58.297119140625</ele>
        <time>2012-04-16T15:15:46Z</time>
      </trkpt>
      <trkpt lat="48.12283" lon="-3.01401">
        <ele>57.335815429688</ele>
        <time>2012-04-16T15:16:02Z</time>
      </trkpt>
      <trkpt lat="48.1232" lon="-3.01436">
        <ele>57.335815429688</ele>
        <time>2012-04-16T15:16:15Z</time>
      </trkpt>
      <trkpt lat="48.1235" lon="-3.01461">
        <ele>55.4130859375</ele>
        <time>2012-04-16T15:16:25Z</time>
      </trkpt>
      <trkpt lat="48.12385" lon="-3.01488">
        <ele>54.451782226562</ele>
        <time>2012-04-16T15:16:37Z</time>
      </trkpt>
      <trkpt lat="48.12426" lon="-3.01516">
        <ele>55.893798828125</ele>
        <time>2012-04-16T15:16:52Z</time>
      </trkpt>
      <trkpt lat="48.12458" lon="-3.01526">
        <ele>53.97119140625</ele>
        <time>2012-04-16T15:17:04Z</time>
      </trkpt>
      <trkpt lat="48.1247" lon="-3.01528">
        <ele>53.97119140625</ele>
        <time>2012-04-16T15:17:11Z</time>
      </trkpt>
      <trkpt lat="48.12472" lon="-3.01528">
        <ele>53.97119140625</ele>
        <time>2012-04-16T15:17:12Z</time>
      </trkpt>
      <trkpt lat="48.12484" lon="-3.01529">
        <ele>54.932373046875</ele>
        <time>2012-04-16T15:17:16Z</time>
      </trkpt>
      <trkpt lat="48.12525" lon="-3.01535">
        <ele>56.37451171875</ele>
        <time>2012-04-16T15:17:27Z</time>
      </trkpt>
      <trkpt lat="48.12571" lon="-3.01527">
        <ele>57.335815429688</ele>
        <time>2012-04-16T15:17:39Z</time>
      </trkpt>
      <trkpt lat="48.12642" lon="-3.01509">
        <ele>58.297119140625</ele>
        <time>2012-04-16T15:17:59Z</time>
      </trkpt>
      <trkpt lat="48.12707" lon="-3.01484">
        <ele>57.816528320312</ele>
        <time>2012-04-16T15:18:18Z</time>
      </trkpt>
      <trkpt lat="48.12756" lon="-3.01455">
        <ele>58.777709960938</ele>
        <time>2012-04-16T15:18:33Z</time>
      </trkpt>
      <trkpt lat="48.12815" lon="-3.01397">
        <ele>59.258422851562</ele>
        <time>2012-04-16T15:18:53Z</time>
      </trkpt>
      <trkpt lat="48.12832" lon="-3.01359">
        <ele>60.2197265625</ele>
        <time>2012-04-16T15:19:04Z</time>
      </trkpt>
      <trkpt lat="48.12845" lon="-3.01298">
        <ele>60.700317382812</ele>
        <time>2012-04-16T15:19:18Z</time>
      </trkpt>
      <trkpt lat="48.12874" lon="-3.01229">
        <ele>62.142333984375</ele>
        <time>2012-04-16T15:19:33Z</time>
      </trkpt>
      <trkpt lat="48.12902" lon="-3.01186">
        <ele>60.2197265625</ele>
        <time>2012-04-16T15:19:44Z</time>
      </trkpt>
      <trkpt lat="48.12921" lon="-3.0116">
        <ele>58.297119140625</ele>
        <time>2012-04-16T15:19:52Z</time>
      </trkpt>
      <trkpt lat="48.12953" lon="-3.01112">
        <ele>58.777709960938</ele>
        <time>2012-04-16T15:20:03Z</time>
      </trkpt>
      <trkpt lat="48.12964" lon="-3.01087">
        <ele>56.855102539062</ele>
        <time>2012-04-16T15:20:09Z</time>
      </trkpt>
      <trkpt lat="48.12985" lon="-3.01041">
        <ele>56.855102539062</ele>
        <time>2012-04-16T15:20:21Z</time>
      </trkpt>
      <trkpt lat="48.13012" lon="-3.0097">
        <ele>57.335815429688</ele>
        <time>2012-04-16T15:20:36Z</time>
      </trkpt>
      <trkpt lat="48.13016" lon="-3.00907">
        <ele>59.258422851562</ele>
        <time>2012-04-16T15:20:49Z</time>
      </trkpt>
      <trkpt lat="48.13017" lon="-3.00891">
        <ele>58.297119140625</ele>
        <time>2012-04-16T15:20:52Z</time>
      </trkpt>
      <trkpt lat="48.1302" lon="-3.00849">
        <ele>57.335815429688</ele>
        <time>2012-04-16T15:21:01Z</time>
      </trkpt>
      <trkpt lat="48.13023" lon="-3.00805">
        <ele>57.335815429688</ele>
        <time>2012-04-16T15:21:09Z</time>
      </trkpt>
      <trkpt lat="48.13027" lon="-3.00743">
        <ele>55.893798828125</ele>
        <time>2012-04-16T15:21:21Z</time>
      </trkpt>
      <trkpt lat="48.13028" lon="-3.00723">
        <ele>54.932373046875</ele>
        <time>2012-04-16T15:21:25Z</time>
      </trkpt>
      <trkpt lat="48.13038" lon="-3.00658">
        <ele>55.893798828125</ele>
        <time>2012-04-16T15:21:37Z</time>
      </trkpt>
      <trkpt lat="48.13046" lon="-3.00605">
        <ele>54.932373046875</ele>
        <time>2012-04-16T15:21:50Z</time>
      </trkpt>
      <trkpt lat="48.1306" lon="-3.0052">
        <ele>54.932373046875</ele>
        <time>2012-04-16T15:22:03Z</time>
      </trkpt>
      <trkpt lat="48.13097" lon="-3.00419">
        <ele>58.777709960938</ele>
        <time>2012-04-16T15:22:23Z</time>
      </trkpt>
      <trkpt lat="48.13105" lon="-3.00409">
        <ele>59.258422851562</ele>
        <time>2012-04-16T15:22:32Z</time>
      </trkpt>
      <trkpt lat="48.13123" lon="-3.00382">
        <ele>60.2197265625</ele>
        <time>2012-04-16T15:22:46Z</time>
      </trkpt>
      <trkpt lat="48.13144" lon="-3.00352">
        <ele>62.622924804688</ele>
        <time>2012-04-16T15:22:56Z</time>
      </trkpt>
      <trkpt lat="48.1318" lon="-3.00301">
        <ele>65.0263671875</ele>
        <time>2012-04-16T15:23:10Z</time>
      </trkpt>
      <trkpt lat="48.13205" lon="-3.00275">
        <ele>65.507080078125</ele>
        <time>2012-04-16T15:23:17Z</time>
      </trkpt>
      <trkpt lat="48.1326" lon="-3.00244">
        <ele>65.987670898438</ele>
        <time>2012-04-16T15:23:31Z</time>
      </trkpt>
      <trkpt lat="48.13324" lon="-3.00222">
        <ele>65.507080078125</ele>
        <time>2012-04-16T15:23:46Z</time>
      </trkpt>
      <trkpt lat="48.13383" lon="-3.00218">
        <ele>63.584350585938</ele>
        <time>2012-04-16T15:24:01Z</time>
      </trkpt>
      <trkpt lat="48.13399" lon="-3.00228">
        <ele>61.181030273438</ele>
        <time>2012-04-16T15:24:05Z</time>
      </trkpt>
      <trkpt lat="48.13444" lon="-3.00259">
        <ele>58.297119140625</ele>
        <time>2012-04-16T15:24:17Z</time>
      </trkpt>
      <trkpt lat="48.13477" lon="-3.00297">
        <ele>57.816528320312</ele>
        <time>2012-04-16T15:24:27Z</time>
      </trkpt>
      <trkpt lat="48.13509" lon="-3.00341">
        <ele>57.816528320312</ele>
        <time>2012-04-16T15:24:37Z</time>
      </trkpt>
      <trkpt lat="48.13518" lon="-3.00354">
        <ele>57.816528320312</ele>
        <time>2012-04-16T15:24:40Z</time>
      </trkpt>
      <trkpt lat="48.13586" lon="-3.00443">
        <ele>60.2197265625</ele>
        <time>2012-04-16T15:25:01Z</time>
      </trkpt>
      <trkpt lat="48.13621" lon="-3.00517">
        <ele>61.661743164062</ele>
        <time>2012-04-16T15:25:16Z</time>
      </trkpt>
      <trkpt lat="48.13636" lon="-3.00604">
        <ele>60.2197265625</ele>
        <time>2012-04-16T15:25:31Z</time>
      </trkpt>
      <trkpt lat="48.13647" lon="-3.00687">
        <ele>56.855102539062</ele>
        <time>2012-04-16T15:25:45Z</time>
      </trkpt>
      <trkpt lat="48.13641" lon="-3.00785">
        <ele>55.893798828125</ele>
        <time>2012-04-16T15:26:01Z</time>
      </trkpt>
      <trkpt lat="48.13637" lon="-3.00854">
        <ele>54.932373046875</ele>
        <time>2012-04-16T15:26:12Z</time>
      </trkpt>
      <trkpt lat="48.13635" lon="-3.00878">
        <ele>54.932373046875</ele>
        <time>2012-04-16T15:26:16Z</time>
      </trkpt>
      <trkpt lat="48.13639" lon="-3.0093">
        <ele>55.893798828125</ele>
        <time>2012-04-16T15:26:24Z</time>
      </trkpt>
      <trkpt lat="48.13644" lon="-3.00957">
        <ele>56.855102539062</ele>
        <time>2012-04-16T15:26:28Z</time>
      </trkpt>
      <trkpt lat="48.13687" lon="-3.01025">
        <ele>55.4130859375</ele>
        <time>2012-04-16T15:26:42Z</time>
      </trkpt>
      <trkpt lat="48.13701" lon="-3.0104">
        <ele>54.451782226562</ele>
        <time>2012-04-16T15:26:46Z</time>
      </trkpt>
      <trkpt lat="48.13733" lon="-3.01069">
        <ele>55.893798828125</ele>
        <time>2012-04-16T15:26:54Z</time>
      </trkpt>
      <trkpt lat="48.13786" lon="-3.01103">
        <ele>56.37451171875</ele>
        <time>2012-04-16T15:27:06Z</time>
      </trkpt>
      <trkpt lat="48.13842" lon="-3.01094">
        <ele>57.816528320312</ele>
        <time>2012-04-16T15:27:20Z</time>
      </trkpt>
      <trkpt lat="48.13858" lon="-3.01081">
        <ele>57.816528320312</ele>
        <time>2012-04-16T15:27:24Z</time>
      </trkpt>
      <trkpt lat="48.1391" lon="-3.01037">
        <ele>58.297119140625</ele>
        <time>2012-04-16T15:27:39Z</time>
      </trkpt>
      <trkpt lat="48.13969" lon="-3.0098">
        <ele>59.258422851562</ele>
        <time>2012-04-16T15:27:56Z</time>
      </trkpt>
      <trkpt lat="48.14026" lon="-3.00925">
        <ele>60.700317382812</ele>
        <time>2012-04-16T15:28:12Z</time>
      </trkpt>
      <trkpt lat="48.14063" lon="-3.00878">
        <ele>61.661743164062</ele>
        <time>2012-04-16T15:28:24Z</time>
      </trkpt>
      <trkpt lat="48.14073" lon="-3.00865">
        <ele>61.661743164062</ele>
        <time>2012-04-16T15:28:27Z</time>
      </trkpt>
      <trkpt lat="48.14116" lon="-3.00808">
        <ele>63.584350585938</ele>
        <time>2012-04-16T15:28:41Z</time>
      </trkpt>
      <trkpt lat="48.14122" lon="-3.00799">
        <ele>63.103637695312</ele>
        <time>2012-04-16T15:28:43Z</time>
      </trkpt>
      <trkpt lat="48.14135" lon="-3.00782">
        <ele>62.622924804688</ele>
        <time>2012-04-16T15:28:47Z</time>
      </trkpt>
      <trkpt lat="48.14182" lon="-3.00742">
        <ele>61.181030273438</ele>
        <time>2012-04-16T15:29:02Z</time>
      </trkpt>
      <trkpt lat="48.142" lon="-3.00721">
        <ele>62.622924804688</ele>
        <time>2012-04-16T15:32:08Z</time>
      </trkpt>
      <trkpt lat="48.14213" lon="-3.0069">
        <ele>62.622924804688</ele>
        <time>2012-04-16T15:32:15Z</time>
      </trkpt>
      <trkpt lat="48.14232" lon="-3.00648">
        <ele>60.700317382812</ele>
        <time>2012-04-16T15:32:24Z</time>
      </trkpt>
      <trkpt lat="48.14264" lon="-3.00571">
        <ele>63.103637695312</ele>
        <time>2012-04-16T15:32:40Z</time>
      </trkpt>
      <trkpt lat="48.14274" lon="-3.00547">
        <ele>62.622924804688</ele>
        <time>2012-04-16T15:32:48Z</time>
      </trkpt>
      <trkpt lat="48.14286" lon="-3.00519">
        <ele>63.103637695312</ele>
        <time>2012-04-16T15:33:00Z</time>
      </trkpt>
      <trkpt lat="48.14304" lon="-3.00485">
        <ele>62.142333984375</ele>
        <time>2012-04-16T15:33:12Z</time>
      </trkpt>
      <trkpt lat="48.14319" lon="-3.00455">
        <ele>61.661743164062</ele>
        <time>2012-04-16T15:33:22Z</time>
      </trkpt>
      <trkpt lat="48.14368" lon="-3.00362">
        <ele>59.258422851562</ele>
        <time>2012-04-16T15:33:42Z</time>
      </trkpt>
      <trkpt lat="48.14411" lon="-3.00278">
        <ele>60.700317382812</ele>
        <time>2012-04-16T15:33:59Z</time>
      </trkpt>
      <trkpt lat="48.14445" lon="-3.00251">
        <ele>60.2197265625</ele>
        <time>2012-04-16T15:34:08Z</time>
      </trkpt>
      <trkpt lat="48.14474" lon="-3.00252">
        <ele>59.739135742188</ele>
        <time>2012-04-16T15:34:15Z</time>
      </trkpt>
      <trkpt lat="48.14484" lon="-3.00255">
        <ele>60.2197265625</ele>
        <time>2012-04-16T15:34:17Z</time>
      </trkpt>
      <trkpt lat="48.14595" lon="-3.00305">
        <ele>60.2197265625</ele>
        <time>2012-04-16T15:34:42Z</time>
      </trkpt>
      <trkpt lat="48.14625" lon="-3.00321">
        <ele>59.739135742188</ele>
        <time>2012-04-16T15:34:49Z</time>
      </trkpt>
      <trkpt lat="48.14744" lon="-3.00368">
        <ele>59.258422851562</ele>
        <time>2012-04-16T15:35:16Z</time>
      </trkpt>
      <trkpt lat="48.14815" lon="-3.0041">
        <ele>57.335815429688</ele>
        <time>2012-04-16T15:35:33Z</time>
      </trkpt>
      <trkpt lat="48.14838" lon="-3.00444">
        <ele>57.335815429688</ele>
        <time>2012-04-16T15:35:40Z</time>
      </trkpt>
      <trkpt lat="48.14878" lon="-3.00516">
        <ele>59.258422851562</ele>
        <time>2012-04-16T15:35:54Z</time>
      </trkpt>
      <trkpt lat="48.14887" lon="-3.00531">
        <ele>59.739135742188</ele>
        <time>2012-04-16T15:35:57Z</time>
      </trkpt>
      <trkpt lat="48.14952" lon="-3.00649">
        <ele>60.700317382812</ele>
        <time>2012-04-16T15:36:19Z</time>
      </trkpt>
      <trkpt lat="48.14999" lon="-3.00734">
        <ele>61.181030273438</ele>
        <time>2012-04-16T15:36:35Z</time>
      </trkpt>
      <trkpt lat="48.15055" lon="-3.00851">
        <ele>62.142333984375</ele>
        <time>2012-04-16T15:36:56Z</time>
      </trkpt>
      <trkpt lat="48.15083" lon="-3.0094">
        <ele>64.065063476562</ele>
        <time>2012-04-16T15:37:12Z</time>
      </trkpt>
      <trkpt lat="48.1509" lon="-3.0096">
        <ele>64.545654296875</ele>
        <time>2012-04-16T15:37:15Z</time>
      </trkpt>
      <trkpt lat="48.15115" lon="-3.0104">
        <ele>68.87158203125</ele>
        <time>2012-04-16T15:37:27Z</time>
      </trkpt>
      <trkpt lat="48.15149" lon="-3.01085">
        <ele>68.390869140625</ele>
        <time>2012-04-16T15:37:36Z</time>
      </trkpt>
      <trkpt lat="48.1522" lon="-3.01138">
        <ele>65.507080078125</ele>
        <time>2012-04-16T15:37:53Z</time>
      </trkpt>
      <trkpt lat="48.15274" lon="-3.01169">
        <ele>63.584350585938</ele>
        <time>2012-04-16T15:38:06Z</time>
      </trkpt>
      <trkpt lat="48.1529" lon="-3.01175">
        <ele>63.584350585938</ele>
        <time>2012-04-16T15:38:10Z</time>
      </trkpt>
      <trkpt lat="48.15351" lon="-3.01188">
        <ele>63.103637695312</ele>
        <time>2012-04-16T15:38:25Z</time>
      </trkpt>
      <trkpt lat="48.1536" lon="-3.01188">
        <ele>63.103637695312</ele>
        <time>2012-04-16T15:38:27Z</time>
      </trkpt>
      <trkpt lat="48.15396" lon="-3.0116">
        <ele>63.103637695312</ele>
        <time>2012-04-16T15:38:37Z</time>
      </trkpt>
      <trkpt lat="48.15426" lon="-3.01138">
        <ele>63.584350585938</ele>
        <time>2012-04-16T15:38:46Z</time>
      </trkpt>
      <trkpt lat="48.15485" lon="-3.01107">
        <ele>64.065063476562</ele>
        <time>2012-04-16T15:39:01Z</time>
      </trkpt>
      <trkpt lat="48.15541" lon="-3.01103">
        <ele>65.0263671875</ele>
        <time>2012-04-16T15:39:17Z</time>
      </trkpt>
      <trkpt lat="48.15618" lon="-3.01103">
        <ele>61.661743164062</ele>
        <time>2012-04-16T15:39:35Z</time>
      </trkpt>
      <trkpt lat="48.15694" lon="-3.01103">
        <ele>61.181030273438</ele>
        <time>2012-04-16T15:39:52Z</time>
      </trkpt>
      <trkpt lat="48.15773" lon="-3.01102">
        <ele>61.181030273438</ele>
        <time>2012-04-16T15:40:09Z</time>
      </trkpt>
      <trkpt lat="48.15843" lon="-3.01077">
        <ele>60.700317382812</ele>
        <time>2012-04-16T15:40:25Z</time>
      </trkpt>
      <trkpt lat="48.15894" lon="-3.01017">
        <ele>61.661743164062</ele>
        <time>2012-04-16T15:40:41Z</time>
      </trkpt>
      <trkpt lat="48.15898" lon="-3.01012">
        <ele>61.661743164062</ele>
        <time>2012-04-16T15:40:42Z</time>
      </trkpt>
      <trkpt lat="48.15901" lon="-3.00987">
        <ele>61.661743164062</ele>
        <time>2012-04-16T15:40:48Z</time>
      </trkpt>
      <trkpt lat="48.15907" lon="-3.00854">
        <ele>60.2197265625</ele>
        <time>2012-04-16T15:41:09Z</time>
      </trkpt>
      <trkpt lat="48.15892" lon="-3.00696">
        <ele>59.258422851562</ele>
        <time>2012-04-16T15:41:35Z</time>
      </trkpt>
      <trkpt lat="48.15887" lon="-3.00653">
        <ele>60.700317382812</ele>
        <time>2012-04-16T15:41:42Z</time>
      </trkpt>
      <trkpt lat="48.15858" lon="-3.00542">
        <ele>61.181030273438</ele>
        <time>2012-04-16T15:42:02Z</time>
      </trkpt>
      <trkpt lat="48.15818" lon="-3.0039">
        <ele>62.622924804688</ele>
        <time>2012-04-16T15:42:29Z</time>
      </trkpt>
      <trkpt lat="48.15816" lon="-3.00379">
        <ele>63.103637695312</ele>
        <time>2012-04-16T15:42:31Z</time>
      </trkpt>
      <trkpt lat="48.15794" lon="-3.00234">
        <ele>63.103637695312</ele>
        <time>2012-04-16T15:42:52Z</time>
      </trkpt>
      <trkpt lat="48.15825" lon="-3.00097">
        <ele>64.545654296875</ele>
        <time>2012-04-16T15:43:11Z</time>
      </trkpt>
      <trkpt lat="48.15883" lon="-3.00025">
        <ele>67.4296875</ele>
        <time>2012-04-16T15:43:26Z</time>
      </trkpt>
      <trkpt lat="48.1591" lon="-3.00005">
        <ele>66.948974609375</ele>
        <time>2012-04-16T15:43:32Z</time>
      </trkpt>
      <trkpt lat="48.15977" lon="-2.99973">
        <ele>67.4296875</ele>
        <time>2012-04-16T15:43:46Z</time>
      </trkpt>
      <trkpt lat="48.16035" lon="-2.99955">
        <ele>67.910278320312</ele>
        <time>2012-04-16T15:44:00Z</time>
      </trkpt>
      <trkpt lat="48.16101" lon="-2.99919">
        <ele>67.4296875</ele>
        <time>2012-04-16T15:44:16Z</time>
      </trkpt>
      <trkpt lat="48.16154" lon="-2.99886">
        <ele>66.948974609375</ele>
        <time>2012-04-16T15:44:30Z</time>
      </trkpt>
      <trkpt lat="48.16181" lon="-2.99869">
        <ele>67.4296875</ele>
        <time>2012-04-16T15:44:37Z</time>
      </trkpt>
      <trkpt lat="48.16245" lon="-2.99828">
        <ele>68.87158203125</ele>
        <time>2012-04-16T15:44:55Z</time>
      </trkpt>
      <trkpt lat="48.16328" lon="-2.99775">
        <ele>68.87158203125</ele>
        <time>2012-04-16T15:45:16Z</time>
      </trkpt>
      <trkpt lat="48.16378" lon="-2.99742">
        <ele>68.390869140625</ele>
        <time>2012-04-16T15:45:29Z</time>
      </trkpt>
      <trkpt lat="48.16445" lon="-2.997">
        <ele>68.390869140625</ele>
        <time>2012-04-16T15:45:46Z</time>
      </trkpt>
      <trkpt lat="48.16492" lon="-2.99669">
        <ele>70.3134765625</ele>
        <time>2012-04-16T15:46:01Z</time>
      </trkpt>
      <trkpt lat="48.16492" lon="-2.99669">
        <ele>70.3134765625</ele>
        <time>2012-04-16T15:46:03Z</time>
      </trkpt>
      <trkpt lat="48.16492" lon="-2.99669">
        <ele>69.832885742188</ele>
        <time>2012-04-16T15:46:14Z</time>
      </trkpt>
      <trkpt lat="48.16492" lon="-2.99669">
        <ele>69.832885742188</ele>
        <time>2012-04-16T15:46:19Z</time>
      </trkpt>
      <trkpt lat="48.16574" lon="-2.99586">
        <ele>69.352294921875</ele>
        <time>2012-04-16T15:46:36Z</time>
      </trkpt>
      <trkpt lat="48.16634" lon="-2.99555">
        <ele>69.352294921875</ele>
        <time>2012-04-16T15:46:53Z</time>
      </trkpt>
      <trkpt lat="48.16689" lon="-2.99525">
        <ele>68.87158203125</ele>
        <time>2012-04-16T15:47:08Z</time>
      </trkpt>
      <trkpt lat="48.16755" lon="-2.99489">
        <ele>69.832885742188</ele>
        <time>2012-04-16T15:47:25Z</time>
      </trkpt>
      <trkpt lat="48.1681" lon="-2.99459">
        <ele>70.794189453125</ele>
        <time>2012-04-16T15:47:40Z</time>
      </trkpt>
      <trkpt lat="48.16856" lon="-2.99433">
        <ele>68.390869140625</ele>
        <time>2012-04-16T15:47:53Z</time>
      </trkpt>
      <trkpt lat="48.16934" lon="-2.9939">
        <ele>68.87158203125</ele>
        <time>2012-04-16T15:48:15Z</time>
      </trkpt>
      <trkpt lat="48.17027" lon="-2.99447">
        <ele>67.4296875</ele>
        <time>2012-04-16T15:48:32Z</time>
      </trkpt>
      <trkpt lat="48.17083" lon="-2.99456">
        <ele>67.4296875</ele>
        <time>2012-04-16T15:48:46Z</time>
      </trkpt>
      <trkpt lat="48.17143" lon="-2.99516">
        <ele>66.948974609375</ele>
        <time>2012-04-16T15:49:04Z</time>
      </trkpt>
      <trkpt lat="48.17153" lon="-2.99537">
        <ele>67.4296875</ele>
        <time>2012-04-16T15:49:08Z</time>
      </trkpt>
      <trkpt lat="48.17169" lon="-2.99618">
        <ele>66.46826171875</ele>
        <time>2012-04-16T15:49:22Z</time>
      </trkpt>
      <trkpt lat="48.17176" lon="-2.9966">
        <ele>67.910278320312</ele>
        <time>2012-04-16T15:49:29Z</time>
      </trkpt>
      <trkpt lat="48.17195" lon="-2.99758">
        <ele>66.46826171875</ele>
        <time>2012-04-16T15:49:45Z</time>
      </trkpt>
      <trkpt lat="48.17211" lon="-2.99853">
        <ele>67.4296875</ele>
        <time>2012-04-16T15:50:00Z</time>
      </trkpt>
      <trkpt lat="48.17224" lon="-2.99922">
        <ele>67.4296875</ele>
        <time>2012-04-16T15:50:11Z</time>
      </trkpt>
      <trkpt lat="48.17239" lon="-2.99999">
        <ele>65.507080078125</ele>
        <time>2012-04-16T15:50:24Z</time>
      </trkpt>
      <trkpt lat="48.17256" lon="-3.00097">
        <ele>66.46826171875</ele>
        <time>2012-04-16T15:50:40Z</time>
      </trkpt>
      <trkpt lat="48.17266" lon="-3.00156">
        <ele>67.4296875</ele>
        <time>2012-04-16T15:50:49Z</time>
      </trkpt>
      <trkpt lat="48.17285" lon="-3.00258">
        <ele>66.46826171875</ele>
        <time>2012-04-16T15:51:05Z</time>
      </trkpt>
      <trkpt lat="48.17304" lon="-3.00362">
        <ele>64.545654296875</ele>
        <time>2012-04-16T15:51:22Z</time>
      </trkpt>
      <trkpt lat="48.17325" lon="-3.00478">
        <ele>65.507080078125</ele>
        <time>2012-04-16T15:51:41Z</time>
      </trkpt>
      <trkpt lat="48.17332" lon="-3.00516">
        <ele>68.390869140625</ele>
        <time>2012-04-16T15:51:53Z</time>
      </trkpt>
      <trkpt lat="48.17341" lon="-3.00563">
        <ele>69.352294921875</ele>
        <time>2012-04-16T15:52:06Z</time>
      </trkpt>
      <trkpt lat="48.17351" lon="-3.0062">
        <ele>66.948974609375</ele>
        <time>2012-04-16T15:52:17Z</time>
      </trkpt>
      <trkpt lat="48.17361" lon="-3.00662">
        <ele>66.46826171875</ele>
        <time>2012-04-16T15:52:26Z</time>
      </trkpt>
      <trkpt lat="48.17395" lon="-3.00716">
        <ele>67.4296875</ele>
        <time>2012-04-16T15:52:39Z</time>
      </trkpt>
      <trkpt lat="48.17446" lon="-3.00761">
        <ele>66.46826171875</ele>
        <time>2012-04-16T15:52:54Z</time>
      </trkpt>
      <trkpt lat="48.17504" lon="-3.00811">
        <ele>67.4296875</ele>
        <time>2012-04-16T15:53:12Z</time>
      </trkpt>
      <trkpt lat="48.17543" lon="-3.00844">
        <ele>71.27490234375</ele>
        <time>2012-04-16T15:53:25Z</time>
      </trkpt>
      <trkpt lat="48.17549" lon="-3.0085">
        <ele>72.236206054688</ele>
        <time>2012-04-16T15:53:28Z</time>
      </trkpt>
      <trkpt lat="48.17556" lon="-3.00852">
        <ele>73.197631835938</ele>
        <time>2012-04-16T15:53:32Z</time>
      </trkpt>
      <trkpt lat="48.17558" lon="-3.00855">
        <ele>73.67822265625</ele>
        <time>2012-04-16T15:53:34Z</time>
      </trkpt>
      <trkpt lat="48.17581" lon="-3.00874">
        <ele>73.67822265625</ele>
        <time>2012-04-16T15:53:48Z</time>
      </trkpt>
      <trkpt lat="48.17593" lon="-3.00885">
        <ele>73.197631835938</ele>
        <time>2012-04-16T15:54:00Z</time>
      </trkpt>
      <trkpt lat="48.17593" lon="-3.00886">
        <ele>73.197631835938</ele>
        <time>2012-04-16T15:55:55Z</time>
      </trkpt>
      <trkpt lat="48.176" lon="-3.00891">
        <ele>74.158813476562</ele>
        <time>2012-04-16T15:56:10Z</time>
      </trkpt>
      <trkpt lat="48.17599" lon="-3.00892">
        <ele>74.639526367188</ele>
        <time>2012-04-16T15:56:42Z</time>
      </trkpt>
      <trkpt lat="48.17602" lon="-3.00893">
        <ele>75.120239257812</ele>
        <time>2012-04-16T15:58:51Z</time>
      </trkpt>
      <trkpt lat="48.17638" lon="-3.00924">
        <ele>75.120239257812</ele>
        <time>2012-04-16T15:59:06Z</time>
      </trkpt>
      <trkpt lat="48.17702" lon="-3.00961">
        <ele>75.120239257812</ele>
        <time>2012-04-16T15:59:24Z</time>
      </trkpt>
      <trkpt lat="48.17772" lon="-3.00976">
        <ele>74.158813476562</ele>
        <time>2012-04-16T15:59:42Z</time>
      </trkpt>
      <trkpt lat="48.17871" lon="-3.00987">
        <ele>71.755493164062</ele>
        <time>2012-04-16T16:00:09Z</time>
      </trkpt>
      <trkpt lat="48.17984" lon="-3.01018">
        <ele>71.755493164062</ele>
        <time>2012-04-16T16:00:36Z</time>
      </trkpt>
      <trkpt lat="48.18058" lon="-3.01021">
        <ele>72.236206054688</ele>
        <time>2012-04-16T16:00:53Z</time>
      </trkpt>
      <trkpt lat="48.18155" lon="-3.0105">
        <ele>72.236206054688</ele>
        <time>2012-04-16T16:01:15Z</time>
      </trkpt>
      <trkpt lat="48.18259" lon="-3.01054">
        <ele>72.716918945312</ele>
        <time>2012-04-16T16:01:38Z</time>
      </trkpt>
      <trkpt lat="48.18356" lon="-3.01059">
        <ele>72.716918945312</ele>
        <time>2012-04-16T16:01:59Z</time>
      </trkpt>
      <trkpt lat="48.18405" lon="-3.01086">
        <ele>74.639526367188</ele>
        <time>2012-04-16T16:02:12Z</time>
      </trkpt>
      <trkpt lat="48.18495" lon="-3.01144">
        <ele>72.716918945312</ele>
        <time>2012-04-16T16:02:33Z</time>
      </trkpt>
      <trkpt lat="48.18522" lon="-3.01163">
        <ele>74.639526367188</ele>
        <time>2012-04-16T16:02:40Z</time>
      </trkpt>
      <trkpt lat="48.18613" lon="-3.01214">
        <ele>74.158813476562</ele>
        <time>2012-04-16T16:03:03Z</time>
      </trkpt>
      <trkpt lat="48.1869" lon="-3.01261">
        <ele>74.158813476562</ele>
        <time>2012-04-16T16:03:23Z</time>
      </trkpt>
      <trkpt lat="48.18769" lon="-3.01351">
        <ele>77.042846679688</ele>
        <time>2012-04-16T16:03:46Z</time>
      </trkpt>
      <trkpt lat="48.18898" lon="-3.01452">
        <ele>78.484741210938</ele>
        <time>2012-04-16T16:04:15Z</time>
      </trkpt>
      <trkpt lat="48.18956" lon="-3.01602">
        <ele>78.004028320312</ele>
        <time>2012-04-16T16:04:42Z</time>
      </trkpt>
      <trkpt lat="48.18959" lon="-3.0161">
        <ele>78.004028320312</ele>
        <time>2012-04-16T16:04:44Z</time>
      </trkpt>
      <trkpt lat="48.18993" lon="-3.01706">
        <ele>78.965454101562</ele>
        <time>2012-04-16T16:05:05Z</time>
      </trkpt>
      <trkpt lat="48.18996" lon="-3.01714">
        <ele>79.446044921875</ele>
        <time>2012-04-16T16:05:08Z</time>
      </trkpt>
      <trkpt lat="48.18998" lon="-3.01721">
        <ele>79.446044921875</ele>
        <time>2012-04-16T16:05:17Z</time>
      </trkpt>
      <trkpt lat="48.18998" lon="-3.01721">
        <ele>79.446044921875</ele>
        <time>2012-04-16T16:05:31Z</time>
      </trkpt>
      <trkpt lat="48.18975" lon="-3.01657">
        <ele>78.484741210938</ele>
        <time>2012-04-16T16:05:48Z</time>
      </trkpt>
      <trkpt lat="48.18953" lon="-3.01594">
        <ele>78.484741210938</ele>
        <time>2012-04-16T16:06:05Z</time>
      </trkpt>
      <trkpt lat="48.18928" lon="-3.01525">
        <ele>80.88818359375</ele>
        <time>2012-04-16T16:06:21Z</time>
      </trkpt>
      <trkpt lat="48.18897" lon="-3.0145">
        <ele>82.330078125</ele>
        <time>2012-04-16T16:06:41Z</time>
      </trkpt>
      <trkpt lat="48.18881" lon="-3.01418">
        <ele>83.77197265625</ele>
        <time>2012-04-16T16:06:52Z</time>
      </trkpt>
      <trkpt lat="48.18879" lon="-3.01413">
        <ele>87.6171875</ele>
        <time>2012-04-16T16:06:55Z</time>
      </trkpt>
      <trkpt lat="48.18873" lon="-3.01407">
        <ele>89.059326171875</ele>
        <time>2012-04-16T16:06:58Z</time>
      </trkpt>
      <trkpt lat="48.18868" lon="-3.01403">
        <ele>91.462524414062</ele>
        <time>2012-04-16T16:07:03Z</time>
      </trkpt>
      <trkpt lat="48.18853" lon="-3.01391">
        <ele>97.711181640625</ele>
        <time>2012-04-16T16:07:17Z</time>
      </trkpt>
      <trkpt lat="48.18849" lon="-3.01385">
        <ele>99.153076171875</ele>
        <time>2012-04-16T16:07:21Z</time>
      </trkpt>
      <trkpt lat="48.18843" lon="-3.01377">
        <ele>101.07568359375</ele>
        <time>2012-04-16T16:07:26Z</time>
      </trkpt>
      <trkpt lat="48.18831" lon="-3.01357">
        <ele>102.99829101562</ele>
        <time>2012-04-16T16:07:35Z</time>
      </trkpt>
      <trkpt lat="48.18833" lon="-3.01338">
        <ele>102.037109375</ele>
        <time>2012-04-16T16:07:40Z</time>
      </trkpt>
      <trkpt lat="48.1884" lon="-3.01317">
        <ele>102.99829101562</ele>
        <time>2012-04-16T16:07:48Z</time>
      </trkpt>
      <trkpt lat="48.18852" lon="-3.01305">
        <ele>102.99829101562</ele>
        <time>2012-04-16T16:07:56Z</time>
      </trkpt>
      <trkpt lat="48.18862" lon="-3.01295">
        <ele>102.99829101562</ele>
        <time>2012-04-16T16:08:04Z</time>
      </trkpt>
      <trkpt lat="48.1887" lon="-3.01287">
        <ele>104.92102050781</ele>
        <time>2012-04-16T16:08:10Z</time>
      </trkpt>
      <trkpt lat="48.18881" lon="-3.01276">
        <ele>106.36303710938</ele>
        <time>2012-04-16T16:08:23Z</time>
      </trkpt>
      <trkpt lat="48.18881" lon="-3.01276">
        <ele>107.80505371094</ele>
        <time>2012-04-16T16:08:42Z</time>
      </trkpt>
      <trkpt lat="48.18881" lon="-3.01276">
        <ele>110.68884277344</ele>
        <time>2012-04-16T16:09:14Z</time>
      </trkpt>
      <trkpt lat="48.18881" lon="-3.01276">
        <ele>113.57299804688</ele>
        <time>2012-04-16T16:09:43Z</time>
      </trkpt>
      <trkpt lat="48.18955" lon="-3.01196">
        <ele>116.45678710938</ele>
        <time>2012-04-16T16:10:13Z</time>
      </trkpt>
      <trkpt lat="48.18955" lon="-3.01196">
        <ele>120.78283691406</ele>
        <time>2012-04-16T16:10:50Z</time>
      </trkpt>
      <trkpt lat="48.19015" lon="-3.01082">
        <ele>123.18615722656</ele>
        <time>2012-04-16T16:11:21Z</time>
      </trkpt>
      <trkpt lat="48.19015" lon="-3.01082">
        <ele>123.18615722656</ele>
        <time>2012-04-16T16:11:39Z</time>
      </trkpt>
      <trkpt lat="48.19015" lon="-3.01082">
        <ele>124.14733886719</ele>
        <time>2012-04-16T16:15:26Z</time>
      </trkpt>
      <trkpt lat="48.19037" lon="-3.01034">
        <ele>126.06994628906</ele>
        <time>2012-04-16T16:15:39Z</time>
      </trkpt>
      <trkpt lat="48.19076" lon="-3.00978">
        <ele>129.43469238281</ele>
        <time>2012-04-16T16:16:00Z</time>
      </trkpt>
      <trkpt lat="48.19113" lon="-3.00973">
        <ele>131.35729980469</ele>
        <time>2012-04-16T16:16:17Z</time>
      </trkpt>
      <trkpt lat="48.19154" lon="-3.00956">
        <ele>135.20251464844</ele>
        <time>2012-04-16T16:16:37Z</time>
      </trkpt>
      <trkpt lat="48.19205" lon="-3.00935">
        <ele>139.52844238281</ele>
        <time>2012-04-16T16:17:02Z</time>
      </trkpt>
      <trkpt lat="48.19249" lon="-3.0092">
        <ele>143.37365722656</ele>
        <time>2012-04-16T16:17:23Z</time>
      </trkpt>
      <trkpt lat="48.1929" lon="-3.00911">
        <ele>145.29638671875</ele>
        <time>2012-04-16T16:17:41Z</time>
      </trkpt>
      <trkpt lat="48.19344" lon="-3.00914">
        <ele>146.73840332031</ele>
        <time>2012-04-16T16:18:05Z</time>
      </trkpt>
      <trkpt lat="48.19389" lon="-3.00916">
        <ele>148.66101074219</ele>
        <time>2012-04-16T16:18:25Z</time>
      </trkpt>
      <trkpt lat="48.19455" lon="-3.00904">
        <ele>150.58361816406</ele>
        <time>2012-04-16T16:18:51Z</time>
      </trkpt>
      <trkpt lat="48.19495" lon="-3.00897">
        <ele>153.46765136719</ele>
        <time>2012-04-16T16:19:10Z</time>
      </trkpt>
      <trkpt lat="48.19547" lon="-3.00889">
        <ele>155.39025878906</ele>
        <time>2012-04-16T16:19:32Z</time>
      </trkpt>
      <trkpt lat="48.19552" lon="-3.00888">
        <ele>154.90954589844</ele>
        <time>2012-04-16T16:19:47Z</time>
      </trkpt>
      <trkpt lat="48.19552" lon="-3.00888">
        <ele>155.39025878906</ele>
        <time>2012-04-16T16:20:19Z</time>
      </trkpt>
      <trkpt lat="48.19565" lon="-3.00857">
        <ele>154.90954589844</ele>
        <time>2012-04-16T16:20:25Z</time>
      </trkpt>
      <trkpt lat="48.19568" lon="-3.0085">
        <ele>154.90954589844</ele>
        <time>2012-04-16T16:20:27Z</time>
      </trkpt>
      <trkpt lat="48.19603" lon="-3.00768">
        <ele>152.98693847656</ele>
        <time>2012-04-16T16:20:43Z</time>
      </trkpt>
      <trkpt lat="48.19603" lon="-3.00768">
        <ele>152.50634765625</ele>
        <time>2012-04-16T16:20:45Z</time>
      </trkpt>
      <trkpt lat="48.19626" lon="-3.00728">
        <ele>151.06420898438</ele>
        <time>2012-04-16T16:20:49Z</time>
      </trkpt>
      <trkpt lat="48.197" lon="-3.00675">
        <ele>144.81579589844</ele>
        <time>2012-04-16T16:21:05Z</time>
      </trkpt>
      <trkpt lat="48.19702" lon="-3.00673">
        <ele>144.33520507812</ele>
        <time>2012-04-16T16:21:15Z</time>
      </trkpt>
      <trkpt lat="48.19702" lon="-3.00673">
        <ele>144.33520507812</ele>
        <time>2012-04-16T16:21:33Z</time>
      </trkpt>
      <trkpt lat="48.19702" lon="-3.00642">
        <ele>144.33520507812</ele>
        <time>2012-04-16T16:21:40Z</time>
      </trkpt>
      <trkpt lat="48.19702" lon="-3.00684">
        <ele>142.89306640625</ele>
        <time>2012-04-16T16:21:53Z</time>
      </trkpt>
      <trkpt lat="48.197" lon="-3.00734">
        <ele>141.93176269531</ele>
        <time>2012-04-16T16:22:01Z</time>
      </trkpt>
      <trkpt lat="48.19716" lon="-3.00852">
        <ele>138.08654785156</ele>
        <time>2012-04-16T16:22:16Z</time>
      </trkpt>
      <trkpt lat="48.19755" lon="-3.0097">
        <ele>134.72192382812</ele>
        <time>2012-04-16T16:22:32Z</time>
      </trkpt>
      <trkpt lat="48.19764" lon="-3.01008">
        <ele>134.72192382812</ele>
        <time>2012-04-16T16:22:39Z</time>
      </trkpt>
      <trkpt lat="48.19804" lon="-3.01179">
        <ele>133.76049804688</ele>
        <time>2012-04-16T16:23:04Z</time>
      </trkpt>
      <trkpt lat="48.19808" lon="-3.01222">
        <ele>133.76049804688</ele>
        <time>2012-04-16T16:23:10Z</time>
      </trkpt>
      <trkpt lat="48.1981" lon="-3.01247">
        <ele>134.72192382812</ele>
        <time>2012-04-16T16:23:14Z</time>
      </trkpt>
      <trkpt lat="48.19814" lon="-3.01286">
        <ele>135.20251464844</ele>
        <time>2012-04-16T16:23:22Z</time>
      </trkpt>
      <trkpt lat="48.19869" lon="-3.01284">
        <ele>136.16394042969</ele>
        <time>2012-04-16T16:23:27Z</time>
      </trkpt>
      <trkpt lat="48.1988" lon="-3.01284">
        <ele>137.12524414062</ele>
        <time>2012-04-16T16:23:33Z</time>
      </trkpt>
      <trkpt lat="48.19887" lon="-3.0129">
        <ele>137.60583496094</ele>
        <time>2012-04-16T16:23:48Z</time>
      </trkpt>
      <trkpt lat="48.19885" lon="-3.0129">
        <ele>137.60583496094</ele>
        <time>2012-04-16T16:24:26Z</time>
      </trkpt>
      <trkpt lat="48.19885" lon="-3.01285">
        <ele>140.48986816406</ele>
        <time>2012-04-16T16:25:22Z</time>
      </trkpt>
      <trkpt lat="48.19889" lon="-3.01277">
        <ele>140.00915527344</ele>
        <time>2012-04-16T16:25:27Z</time>
      </trkpt>
      <trkpt lat="48.19894" lon="-3.01277">
        <ele>139.52844238281</ele>
        <time>2012-04-16T16:25:30Z</time>
      </trkpt>
      <trkpt lat="48.1991" lon="-3.01293">
        <ele>139.0478515625</ele>
        <time>2012-04-16T16:25:47Z</time>
      </trkpt>
      <trkpt lat="48.19909" lon="-3.01294">
        <ele>139.52844238281</ele>
        <time>2012-04-16T16:26:02Z</time>
      </trkpt>
      <trkpt lat="48.19919" lon="-3.01305">
        <ele>140.97045898438</ele>
        <time>2012-04-16T16:35:20Z</time>
      </trkpt>
      <trkpt lat="48.19934" lon="-3.01321">
        <ele>140.48986816406</ele>
        <time>2012-04-16T16:35:44Z</time>
      </trkpt>
      <trkpt lat="48.19934" lon="-3.0132">
        <ele>140.97045898438</ele>
        <time>2012-04-16T16:36:13Z</time>
      </trkpt>
      <trkpt lat="48.19932" lon="-3.01319">
        <ele>142.41247558594</ele>
        <time>2012-04-16T16:58:03Z</time>
      </trkpt>
    </trkseg>
  </trk>
</gpx>